This is the latest recevied weather packets stored in our database for station/object KF7SOJ. If no packets are shown the sender has not sent any weather packets the latest 10 day(s).
| Time | Temp. | Humidity | Pressure | Rain* | Wind** | Luminosity | Snow |
|---|---|---|---|---|---|---|---|
| 1777507835 | 14.44° C | 26% | 936.6 hPa | 0 mm | - | 282 W/m² | - |
| 1777507532 | 15° C | 25% | 936.5 hPa | 0 mm | - | 309 W/m² | - |
| 1777506926 | 15° C | 26% | 936.5 hPa | 0 mm | - | 338 W/m² | - |
| 1777506320 | 15° C | 25% | 936.5 hPa | 0 mm | - | 401 W/m² | - |
| 1777505409 | 15° C | 24% | 936.3 hPa | 0 mm | - | 366 W/m² | - |
| 1777502980 | 13.89° C | 27% | 936.5 hPa | 0 mm | - | 151 W/m² | - |
| 1777501768 | 15° C | 28% | 936.3 hPa | 0 mm | - | 703 W/m² | - |
| 1777500861 | 14.44° C | 29% | 936.6 hPa | 0 mm | - | 703 W/m² | - |
| 1777500558 | 14.44° C | 30% | 936.5 hPa | 0 mm | - | 769 W/m² | - |
| 1777499647 | 14.44° C | 31% | 936.6 hPa | 0 mm | - | 789 W/m² | - |
| 1777498738 | 15° C | 30% | 936.6 hPa | 0 mm | - | 904 W/m² | - |
| 1777498435 | 14.44° C | 31% | 936.6 hPa | 0 mm | - | 888 W/m² | - |
| 1777498132 | 13.33° C | 32% | 936.7 hPa | 0 mm | - | 317 W/m² | - |
| 1777497829 | 13.33° C | 32% | 936.8 hPa | 0 mm | - | 172 W/m² | - |
| 1777497525 | 13.33° C | 33% | 936.6 hPa | 0 mm | - | 189 W/m² | - |
| 1777496918 | 14.44° C | 30% | 936.5 hPa | 0 mm | - | 296 W/m² | - |
| 1777496615 | 13.89° C | 34% | 936.8 hPa | 0 mm | - | 984 W/m² | - |
| 1777496311 | 13.33° C | 34% | 936.8 hPa | 0 mm | - | 936 W/m² | - |
| 1777495704 | 13.33° C | 34% | 936.9 hPa | 0 mm | - | 318 W/m² | - |
| 1777494794 | 13.89° C | 31% | 936.6 hPa | 0 mm | - | 230 W/m² | - |
| 1777494491 | 13.89° C | 35% | 936.5 hPa | 0 mm | - | 706 W/m² | - |
| 1777494188 | 13.33° C | 35% | 936.7 hPa | 0 mm | - | 250 W/m² | - |
| 1777493583 | 13.89° C | 34% | 936.7 hPa | 0 mm | - | 355 W/m² | - |
| 1777492976 | 13.89° C | 34% | 936.6 hPa | 0 mm | - | 989 W/m² | - |
| 1777491464 | 13.33° C | 36% | 936.6 hPa | 0 mm | - | 1035 W/m² | - |
* Rain latest hour (hover to see other rain measurements)
** Current wind speed in m/s (hover to see current wind gust speed)